Terminal Aerodrome Forecast
Issued by NWS

Home | Current Version | Previous Version | Text Only | Print | Product List | Glossary On
Versions: 1 2 3 4 5 6 7 8 9 10 11 12 13 14 15 16 17 18 19 20 21 22 23
846
FTUS44 KTSA 312107 AAB
TAFRVS
TAF AMD
KRVS 312107Z 3121/0118 02014G19KT P6SM VCTS FEW040CB FEW050
      TEMPO 3121/3123 5SM -TSRA BKN035CB
     FM010200 02005KT P6SM BKN040=

USA.gov is the U.S. government's official web portal to all federal, state and local government web resources and services.